Time;durP1;ratioP1;P1;durP2;ratioP2;P2;SDS_P1;SDS_P2;PMS_P1;PMS_P2;Temp;Humidity;BMP_temperature;BMP_pressure;BME280_temperature;BME280_humidity;BME280_pressure;Samples;Min_cycle;Max_cycle;Signal;HPM_P1;HPM_P2
2022/12/26 00:01:10;;;;;;;38.17;16.02;;;;;;;;;;5011469;28;20249;-71
2022/12/26 00:03:36;;;;;;;36.95;17.23;;;;;;;;;;5001102;28;20210;-71
2022/12/26 00:06:02;;;;;;;40.33;16.95;;;;;;;;;;5036641;28;20222;-71
2022/12/26 00:08:27;;;;;;;37.65;16.52;;;;;;;;;;5018529;28;20297;-72
2022/12/26 00:10:53;;;;;;;35.10;16.00;;;;;;;;;;5022217;28;20190;-71
2022/12/26 00:13:18;;;;;;;34.17;16.23;;;;;;;;;;5020521;28;20201;-71
2022/12/26 00:15:44;;;;;;;32.92;14.65;;;;;;;;;;5022826;28;20178;-71
2022/12/26 00:18:09;;;;;;;37.42;15.55;;;;;;;;;;5015788;28;20189;-71
2022/12/26 00:20:34;;;;;;;33.13;15.45;;;;;;;;;;5015294;28;20670;-71
2022/12/26 00:23:00;;;;;;;35.15;15.77;;;;;;;;;;5007659;28;20235;-71
2022/12/26 00:25:26;;;;;;;33.65;16.35;;;;;;;;;;5020000;28;20186;-70
2022/12/26 00:27:51;;;;;;;38.15;16.67;;;;;;;;;;5036940;28;20289;-72
2022/12/26 00:30:17;;;;;;;37.50;16.30;;;;;;;;;;5010436;28;20195;-71
2022/12/26 00:32:42;;;;;;;35.72;16.77;;;;;;;;;;5007906;28;20792;-71
2022/12/26 00:35:08;;;;;;;35.47;16.00;;;;;;;;;;5009278;28;20233;-71
2022/12/26 00:37:33;;;;;;;33.55;16.15;;;;;;;;;;4997529;28;20176;-70
2022/12/26 00:39:59;;;;;;;36.20;16.90;;;;;;;;;;5001843;28;20186;-70
2022/12/26 00:42:24;;;;;;;39.53;17.00;;;;;;;;;;5009129;28;20414;-71
2022/12/26 00:44:50;;;;;;;37.63;17.00;;;;;;;;;;4997948;28;20197;-70
2022/12/26 00:47:15;;;;;;;39.22;17.75;;;;;;;;;;5008110;28;20215;-70
2022/12/26 00:49:41;;;;;;;39.88;18.35;;;;;;;;;;5011403;28;20245;-71
2022/12/26 00:52:06;;;;;;;43.10;18.85;;;;;;;;;;5003050;28;20672;-70
2022/12/26 00:54:31;;;;;;;40.88;19.52;;;;;;;;;;5018925;28;20186;-70
2022/12/26 00:56:57;;;;;;;41.33;19.63;;;;;;;;;;5008802;28;20269;-71
2022/12/26 00:59:22;;;;;;;42.75;19.23;;;;;;;;;;5010512;28;20195;-70
2022/12/26 01:01:48;;;;;;;42.45;19.27;;;;;;;;;;5002112;28;20207;-70
2022/12/26 01:04:13;;;;;;;48.30;21.08;;;;;;;;;;5007898;28;20199;-70
2022/12/26 01:06:38;;;;;;;46.80;21.65;;;;;;;;;;5007956;28;20713;-69
2022/12/26 01:09:04;;;;;;;47.03;20.10;;;;;;;;;;5006036;28;20282;-69
2022/12/26 01:11:41;;;;;;;46.92;21.33;;;;;;;;;;4999381;28;20655;-69
2022/12/26 01:14:10;;;;;;;39.72;20.60;;;;;;;;;;5000857;28;20190;-69
2022/12/26 01:16:37;;;;;;;42.28;20.65;;;;;;;;;;5008495;28;20197;-70
2022/12/26 01:19:03;;;;;;;42.88;20.45;;;;;;;;;;5011828;28;20182;-69
2022/12/26 01:21:28;;;;;;;44.80;21.75;;;;;;;;;;5007196;28;20194;-69
2022/12/26 01:23:54;;;;;;;38.28;19.23;;;;;;;;;;5005964;28;20230;-70
2022/12/26 01:26:19;;;;;;;41.28;20.92;;;;;;;;;;5007024;28;20273;-69
2022/12/26 01:28:45;;;;;;;39.30;20.25;;;;;;;;;;5011294;28;20210;-70
2022/12/26 01:31:11;;;;;;;37.88;19.65;;;;;;;;;;5012415;28;20197;-69
2022/12/26 01:33:36;;;;;;;36.58;19.15;;;;;;;;;;5004410;28;20235;-70
2022/12/26 01:36:02;;;;;;;39.22;20.48;;;;;;;;;;5014334;28;20198;-69
2022/12/26 01:38:27;;;;;;;42.22;20.40;;;;;;;;;;5009724;28;20186;-69
2022/12/26 01:41:15;;;;;;;40.20;21.45;;;;;;;;;;5013893;28;20218;-69
2022/12/26 01:43:55;;;;;;;37.20;19.83;;;;;;;;;;5013138;28;20194;-69
2022/12/26 01:46:31;;;;;;;39.88;20.92;;;;;;;;;;5022178;28;20248;-69
2022/12/26 01:49:01;;;;;;;40.28;20.80;;;;;;;;;;5015778;28;20221;-69
2022/12/26 01:51:30;;;;;;;37.70;20.75;;;;;;;;;;5021884;28;20200;-69
2022/12/26 01:53:58;;;;;;;39.92;21.13;;;;;;;;;;5013447;28;20681;-69
2022/12/26 01:56:37;;;;;;;37.22;21.15;;;;;;;;;;5018691;28;20190;-69
2022/12/26 01:59:10;;;;;;;37.50;20.30;;;;;;;;;;5008919;28;20195;-69
2022/12/26 02:01:38;;;;;;;37.90;20.30;;;;;;;;;;5015366;28;20197;-69
2022/12/26 02:06:51;;;;;;;36.75;20.65;;;;;;;;;;5013517;28;20367;-69
2022/12/26 02:09:17;;;;;;;35.97;20.10;;;;;;;;;;4999217;28;20219;-69
2022/12/26 02:12:09;;;;;;;36.33;20.90;;;;;;;;;;5009932;28;20323;-69
2022/12/26 02:14:36;;;;;;;38.40;20.58;;;;;;;;;;5010077;28;20288;-69
2022/12/26 02:17:01;;;;;;;40.30;21.50;;;;;;;;;;5015551;28;20191;-69
2022/12/26 02:20:09;;;;;;;41.90;22.08;;;;;;;;;;5002283;28;20194;-69
2022/12/26 02:22:56;;;;;;;42.50;21.70;;;;;;;;;;4987853;28;20246;-69
2022/12/26 02:25:39;;;;;;;45.15;23.35;;;;;;;;;;5012643;28;20277;-69
2022/12/26 02:28:25;;;;;;;40.50;20.92;;;;;;;;;;5003061;28;20241;-69
2022/12/26 02:31:09;;;;;;;47.00;22.98;;;;;;;;;;5017899;28;20206;-69
2022/12/26 02:34:09;;;;;;;46.22;21.90;;;;;;;;;;5009561;28;20247;-69
2022/12/26 02:36:56;;;;;;;49.70;22.58;;;;;;;;;;4994709;28;20278;-69
2022/12/26 02:39:21;;;;;;;45.15;22.52;;;;;;;;;;5014355;28;20186;-69
2022/12/26 02:42:05;;;;;;;45.08;22.83;;;;;;;;;;5011735;28;20265;-68
2022/12/26 02:47:41;;;;;;;48.17;22.83;;;;;;;;;;5006169;28;20686;-69
2022/12/26 03:14:09;;;;;;;57.63;23.38;;;;;;;;;;5004407;28;20213;-68
2022/12/26 03:19:27;;;;;;;52.75;23.00;;;;;;;;;;5010562;28;20220;-69
2022/12/26 03:21:53;;;;;;;49.60;22.52;;;;;;;;;;5018370;28;20236;-68
2022/12/26 03:24:20;;;;;;;52.22;22.50;;;;;;;;;;5009155;28;20218;-69
2022/12/26 03:26:53;;;;;;;53.13;22.40;;;;;;;;;;4996195;28;20190;-68
2022/12/26 03:32:10;;;;;;;51.08;21.25;;;;;;;;;;5009808;28;20739;-69
2022/12/26 03:34:41;;;;;;;51.83;21.20;;;;;;;;;;5015669;28;20525;-68
2022/12/26 03:37:22;;;;;;;45.72;20.45;;;;;;;;;;4999530;28;20408;-69
2022/12/26 04:21:05;;;;;;;46.83;23.50;;;;;;;;;;5003029;28;20190;-68
2022/12/26 04:46:26;;;;;;;55.15;25.20;;;;;;;;;;5005142;28;20253;-68
2022/12/26 04:51:37;;;;;;;49.40;25.10;;;;;;;;;;5007866;28;20683;-68
2022/12/26 04:54:04;;;;;;;46.92;23.90;;;;;;;;;;5010867;28;20273;-68
2022/12/26 04:56:29;;;;;;;49.92;25.85;;;;;;;;;;5009706;28;20194;-68
2022/12/26 04:58:54;;;;;;;45.83;24.35;;;;;;;;;;5000787;28;20190;-68
2022/12/26 05:09:34;;;;;;;44.90;23.90;;;;;;;;;;5007211;28;20204;-69
2022/12/26 05:12:05;;;;;;;45.95;24.27;;;;;;;;;;5003559;28;20194;-67
2022/12/26 05:14:34;;;;;;;45.30;24.88;;;;;;;;;;5004105;28;20178;-68
2022/12/26 05:30:58;;;;;;;42.17;24.67;;;;;;;;;;5003473;28;20198;-69
2022/12/26 05:36:08;;;;;;;43.42;24.95;;;;;;;;;;5006936;28;20630;-68
2022/12/26 05:38:34;;;;;;;44.53;25.25;;;;;;;;;;5004449;28;20498;-68
2022/12/26 05:41:00;;;;;;;44.15;24.95;;;;;;;;;;4998230;28;20578;-68
2022/12/26 05:43:25;;;;;;;39.28;24.05;;;;;;;;;;5007976;28;20278;-68
2022/12/26 05:45:51;;;;;;;40.30;24.75;;;;;;;;;;5007401;28;20577;-67
2022/12/26 05:48:16;;;;;;;47.08;26.60;;;;;;;;;;5001589;28;20211;-67
2022/12/26 05:50:41;;;;;;;46.38;25.02;;;;;;;;;;5004110;28;20191;-67
2022/12/26 05:53:07;;;;;;;44.92;27.38;;;;;;;;;;5005177;28;20249;-67
2022/12/26 05:55:32;;;;;;;46.92;26.38;;;;;;;;;;5007368;28;20269;-67
2022/12/26 05:58:01;;;;;;;45.38;26.27;;;;;;;;;;4999782;28;20245;-67
2022/12/26 06:00:28;;;;;;;49.70;28.08;;;;;;;;;;5002988;28;20202;-67
2022/12/26 06:02:53;;;;;;;51.70;27.85;;;;;;;;;;4996242;28;20214;-67
2022/12/26 06:05:18;;;;;;;48.35;27.63;;;;;;;;;;5005989;28;20237;-68
2022/12/26 06:07:44;;;;;;;49.10;28.70;;;;;;;;;;5005091;28;20218;-68
2022/12/26 06:10:09;;;;;;;47.97;28.88;;;;;;;;;;5009706;28;20274;-68
2022/12/26 06:12:35;;;;;;;53.38;28.77;;;;;;;;;;5011109;28;20191;-67
2022/12/26 06:15:00;;;;;;;52.15;29.45;;;;;;;;;;5003105;28;20194;-67
2022/12/26 06:17:26;;;;;;;53.00;29.90;;;;;;;;;;5005413;28;20225;-68
2022/12/26 06:19:51;;;;;;;49.08;28.77;;;;;;;;;;5007573;28;20198;-67
2022/12/26 06:22:16;;;;;;;53.08;29.75;;;;;;;;;;5007657;28;20652;-68
2022/12/26 06:24:42;;;;;;;53.20;29.65;;;;;;;;;;5003862;28;20195;-68
2022/12/26 06:27:07;;;;;;;50.65;27.85;;;;;;;;;;5007355;28;20709;-68
2022/12/26 06:29:33;;;;;;;51.72;28.67;;;;;;;;;;5003026;28;20206;-67
2022/12/26 06:31:58;;;;;;;51.08;28.60;;;;;;;;;;5010057;28;20187;-68
2022/12/26 06:34:23;;;;;;;54.75;30.38;;;;;;;;;;4999328;28;20318;-68
2022/12/26 06:36:49;;;;;;;52.10;28.90;;;;;;;;;;5006916;28;20198;-68
2022/12/26 06:39:14;;;;;;;50.83;27.85;;;;;;;;;;5006520;28;20194;-68
2022/12/26 06:41:39;;;;;;;51.85;27.63;;;;;;;;;;5003418;28;20249;-67
2022/12/26 06:44:05;;;;;;;48.95;27.27;;;;;;;;;;4997280;28;20190;-68
2022/12/26 06:46:30;;;;;;;51.07;27.70;;;;;;;;;;5004161;28;20200;-68
2022/12/26 06:48:55;;;;;;;48.10;27.07;;;;;;;;;;4999724;28;20211;-68
2022/12/26 06:51:23;;;;;;;49.67;28.93;;;;;;;;;;5011723;28;20278;-68
2022/12/26 06:53:50;;;;;;;51.43;28.43;;;;;;;;;;5015860;28;20213;-68
2022/12/26 06:56:19;;;;;;;45.25;26.58;;;;;;;;;;5013304;28;20194;-68
2022/12/26 06:58:44;;;;;;;50.03;27.55;;;;;;;;;;5010358;28;20206;-68
2022/12/26 07:01:12;;;;;;;49.20;26.20;;;;;;;;;;5006138;28;20210;-68
2022/12/26 07:03:38;;;;;;;44.80;25.30;;;;;;;;;;5014787;28;20202;-68
2022/12/26 07:06:15;;;;;;;46.30;26.37;;;;;;;;;;5014808;28;20646;-67
2022/12/26 07:08:40;;;;;;;49.92;26.63;;;;;;;;;;5019865;28;20296;-68
2022/12/26 07:11:15;;;;;;;45.03;26.10;;;;;;;;;;5009779;28;20270;-68
2022/12/26 07:13:42;;;;;;;47.00;25.27;;;;;;;;;;5020859;28;20191;-68
2022/12/26 07:16:08;;;;;;;46.40;26.07;;;;;;;;;;5012311;28;20202;-67
2022/12/26 07:18:33;;;;;;;44.15;23.50;;;;;;;;;;5007587;28;20210;-67
2022/12/26 07:20:58;;;;;;;38.83;23.48;;;;;;;;;;5001704;28;20183;-67
2022/12/26 07:23:24;;;;;;;35.92;22.55;;;;;;;;;;5003792;28;20309;-67
2022/12/26 07:25:49;;;;;;;38.40;22.07;;;;;;;;;;5008989;28;20548;-67
2022/12/26 07:28:15;;;;;;;39.25;21.83;;;;;;;;;;5006152;28;20215;-67
2022/12/26 07:30:49;;;;;;;36.55;21.77;;;;;;;;;;5004675;28;20192;-67
2022/12/26 07:33:15;;;;;;;35.85;20.75;;;;;;;;;;5016595;28;20201;-67
2022/12/26 07:35:41;;;;;;;35.25;19.48;;;;;;;;;;5017689;28;20198;-67
2022/12/26 07:38:06;;;;;;;31.70;18.58;;;;;;;;;;5021121;28;20256;-67
2022/12/26 07:40:32;;;;;;;27.45;17.38;;;;;;;;;;5014511;28;20194;-67
2022/12/26 07:42:57;;;;;;;27.40;16.77;;;;;;;;;;5014600;28;20194;-67
2022/12/26 07:45:22;;;;;;;24.52;15.63;;;;;;;;;;5007869;28;20199;-67
2022/12/26 07:47:52;;;;;;;23.52;15.80;;;;;;;;;;5015189;28;20216;-67
2022/12/26 07:50:17;;;;;;;26.08;16.38;;;;;;;;;;5004689;28;20190;-67
2022/12/26 07:52:43;;;;;;;24.10;15.07;;;;;;;;;;5002002;28;20646;-67
2022/12/26 07:55:08;;;;;;;21.70;15.50;;;;;;;;;;4993843;28;20187;-68
2022/12/26 07:57:34;;;;;;;21.90;14.38;;;;;;;;;;5012236;28;20685;-67
2022/12/26 07:59:59;;;;;;;21.83;14.20;;;;;;;;;;4995882;28;20211;-67
2022/12/26 08:02:24;;;;;;;21.73;14.80;;;;;;;;;;5005922;28;20199;-67
2022/12/26 08:04:50;;;;;;;24.80;14.65;;;;;;;;;;4988922;28;20195;-67
2022/12/26 08:07:15;;;;;;;21.48;14.25;;;;;;;;;;4995716;28;20202;-67
2022/12/26 08:09:43;;;;;;;21.67;14.00;;;;;;;;;;4994806;28;20367;-67
2022/12/26 08:12:08;;;;;;;18.88;13.40;;;;;;;;;;5002504;28;20590;-67
2022/12/26 08:14:36;;;;;;;17.20;12.75;;;;;;;;;;5009667;28;20178;-68
2022/12/26 08:17:01;;;;;;;18.85;12.75;;;;;;;;;;5011141;28;20194;-68
2022/12/26 08:19:27;;;;;;;18.17;12.07;;;;;;;;;;5002154;28;20191;-67
2022/12/26 08:21:52;;;;;;;20.65;13.13;;;;;;;;;;5010266;28;20570;-67
2022/12/26 08:24:17;;;;;;;19.02;12.80;;;;;;;;;;5006420;28;20198;-67
2022/12/26 08:26:43;;;;;;;21.07;13.67;;;;;;;;;;5007314;28;20221;-67
2022/12/26 08:29:09;;;;;;;19.73;12.77;;;;;;;;;;5008590;28;20211;-67
2022/12/26 08:31:34;;;;;;;17.53;12.37;;;;;;;;;;5006127;28;20600;-67
2022/12/26 08:33:59;;;;;;;17.00;12.03;;;;;;;;;;5007465;28;20213;-67
2022/12/26 08:36:25;;;;;;;16.77;12.67;;;;;;;;;;5011104;28;20186;-67
2022/12/26 08:38:51;;;;;;;21.63;12.97;;;;;;;;;;5030222;28;20207;-68
2022/12/26 08:41:16;;;;;;;16.97;12.33;;;;;;;;;;5007349;28;20186;-67
2022/12/26 08:43:42;;;;;;;19.73;13.00;;;;;;;;;;5018354;28;20198;-67
2022/12/26 08:46:09;;;;;;;19.55;12.32;;;;;;;;;;5016271;28;20252;-67
2022/12/26 08:48:36;;;;;;;20.33;12.73;;;;;;;;;;5011713;28;20713;-67
2022/12/26 08:51:07;;;;;;;18.80;12.07;;;;;;;;;;5013325;28;20186;-68
2022/12/26 08:53:34;;;;;;;16.30;12.10;;;;;;;;;;5020672;28;20570;-67
2022/12/26 08:56:01;;;;;;;20.67;12.15;;;;;;;;;;5015790;28;20186;-67
2022/12/26 08:58:27;;;;;;;15.50;11.30;;;;;;;;;;5019756;28;20266;-67
2022/12/26 09:00:53;;;;;;;15.30;10.87;;;;;;;;;;5015843;28;20214;-68
2022/12/26 09:03:19;;;;;;;16.67;10.63;;;;;;;;;;5036510;28;20323;-68
2022/12/26 09:05:44;;;;;;;14.80;10.40;;;;;;;;;;5018218;28;20189;-67
2022/12/26 09:08:10;;;;;;;15.73;9.65;;;;;;;;;;5015290;28;20209;-68
2022/12/26 09:10:36;;;;;;;15.07;9.25;;;;;;;;;;5004329;28;20197;-67
2022/12/26 09:13:01;;;;;;;15.07;9.10;;;;;;;;;;5001571;28;20203;-68
2022/12/26 09:15:27;;;;;;;13.88;8.43;;;;;;;;;;5005670;28;20554;-67
2022/12/26 09:17:52;;;;;;;10.82;8.13;;;;;;;;;;5007403;28;20193;-67
2022/12/26 09:20:18;;;;;;;11.43;7.53;;;;;;;;;;4996181;28;20186;-67
2022/12/26 09:22:49;;;;;;;12.10;7.60;;;;;;;;;;5007781;28;20241;-67
2022/12/26 09:25:14;;;;;;;12.47;6.63;;;;;;;;;;5005775;28;20266;-67
2022/12/26 09:27:40;;;;;;;9.23;6.22;;;;;;;;;;5018350;28;20297;-68
2022/12/26 09:30:06;;;;;;;9.10;6.22;;;;;;;;;;5015945;28;20182;-67
2022/12/26 09:32:33;;;;;;;9.32;5.05;;;;;;;;;;5014967;28;20193;-68
2022/12/26 09:34:58;;;;;;;11.93;4.93;;;;;;;;;;5017699;28;20192;-68
2022/12/26 09:37:23;;;;;;;6.45;5.07;;;;;;;;;;5007407;28;20677;-68
2022/12/26 09:39:49;;;;;;;10.75;5.07;;;;;;;;;;5017999;28;20698;-67
2022/12/26 09:42:42;;;;;;;7.97;4.40;;;;;;;;;;5015925;28;20209;-67
2022/12/26 09:45:15;;;;;;;8.25;4.60;;;;;;;;;;5021039;28;20252;-68
2022/12/26 09:48:12;;;;;;;7.57;4.20;;;;;;;;;;5020963;28;20210;-68
2022/12/26 09:50:38;;;;;;;6.13;4.10;;;;;;;;;;5008370;28;20225;-67
2022/12/26 09:53:16;;;;;;;5.88;3.63;;;;;;;;;;5023433;28;20211;-68
2022/12/26 09:55:51;;;;;;;11.90;4.00;;;;;;;;;;5018857;28;20622;-68
2022/12/26 09:58:27;;;;;;;6.20;3.47;;;;;;;;;;5015782;28;20696;-68
2022/12/26 10:00:55;;;;;;;7.30;3.80;;;;;;;;;;5017015;28;20331;-67
2022/12/26 10:03:22;;;;;;;6.95;3.60;;;;;;;;;;5015590;28;20679;-68
2022/12/26 10:06:19;;;;;;;5.97;3.60;;;;;;;;;;5019857;28;20247;-67
2022/12/26 10:09:09;;;;;;;7.68;4.05;;;;;;;;;;5013148;28;20305;-68
2022/12/26 10:11:50;;;;;;;7.97;4.10;;;;;;;;;;5012832;28;20333;-67
2022/12/26 10:14:37;;;;;;;8.32;4.43;;;;;;;;;;5016876;28;20212;-68
2022/12/26 10:17:16;;;;;;;8.77;4.55;;;;;;;;;;5025020;28;20198;-69
2022/12/26 10:20:26;;;;;;;10.23;4.35;;;;;;;;;;5022984;28;20192;-70
2022/12/26 10:23:17;;;;;;;14.20;4.85;;;;;;;;;;5005932;28;20225;-70
2022/12/26 10:25:50;;;;;;;9.93;5.40;;;;;;;;;;5018615;28;20272;-70
2022/12/26 10:28:55;;;;;;;7.22;4.95;;;;;;;;;;5019755;28;20665;-70
2022/12/26 10:31:42;;;;;;;8.15;4.97;;;;;;;;;;4998116;28;20193;-70
2022/12/26 10:34:20;;;;;;;8.82;4.63;;;;;;;;;;5020648;28;20899;-71
2022/12/26 10:36:49;;;;;;;7.68;4.53;;;;;;;;;;4997485;28;20330;-70
2022/12/26 10:39:32;;;;;;;9.80;4.72;;;;;;;;;;5023114;28;20200;-70
2022/12/26 10:42:09;;;;;;;7.70;4.40;;;;;;;;;;4995441;28;20192;-70
2022/12/26 10:44:35;;;;;;;7.68;3.90;;;;;;;;;;5019985;28;20262;-70
2022/12/26 10:47:22;;;;;;;8.10;3.53;;;;;;;;;;5018532;28;20189;-69
2022/12/26 10:49:48;;;;;;;5.97;3.50;;;;;;;;;;5019512;28;20201;-69
2022/12/26 10:52:16;;;;;;;7.47;3.10;;;;;;;;;;5009862;28;20195;-69
2022/12/26 10:54:45;;;;;;;6.20;2.88;;;;;;;;;;5007601;28;20179;-72
2022/12/26 10:57:11;;;;;;;5.97;2.30;;;;;;;;;;5004767;28;20256;-69
2022/12/26 10:59:47;;;;;;;13.65;2.60;;;;;;;;;;5006654;28;20225;-70
2022/12/26 11:02:28;;;;;;;11.80;2.67;;;;;;;;;;5005842;28;20696;-69
2022/12/26 11:05:05;;;;;;;10.93;2.38;;;;;;;;;;5016825;28;20198;-69
2022/12/26 11:07:37;;;;;;;14.23;2.25;;;;;;;;;;4313591;28;10000698;-69
2022/12/26 11:10:05;;;;;;;10.97;1.70;;;;;;;;;;5013078;28;20198;-69
2022/12/26 11:12:49;;;;;;;13.90;2.45;;;;;;;;;;5003999;28;20207;-68
2022/12/26 11:15:32;;;;;;;9.87;1.80;;;;;;;;;;5009106;28;20213;-68
2022/12/26 11:18:33;;;;;;;7.33;1.30;;;;;;;;;;5022254;28;20207;-69
2022/12/26 11:21:26;;;;;;;11.13;1.63;;;;;;;;;;4994646;28;20673;-68
2022/12/26 11:24:16;;;;;;;12.93;1.37;;;;;;;;;;4984908;28;20238;-68
2022/12/26 11:26:41;;;;;;;11.40;1.57;;;;;;;;;;5012431;28;20194;-68
2022/12/26 11:29:15;;;;;;;7.33;1.40;;;;;;;;;;5006864;28;20328;-69
2022/12/26 11:31:48;;;;;;;8.27;1.47;;;;;;;;;;5006140;28;20195;-68
2022/12/26 11:34:22;;;;;;;8.00;1.40;;;;;;;;;;5010006;28;20191;-68
2022/12/26 11:36:49;;;;;;;10.03;1.47;;;;;;;;;;5005556;28;20300;-68
2022/12/26 11:39:25;;;;;;;6.47;1.00;;;;;;;;;;5008393;28;20197;-68
2022/12/26 11:41:51;;;;;;;6.67;1.50;;;;;;;;;;5010104;28;20194;-68
2022/12/26 11:44:28;;;;;;;10.93;1.20;;;;;;;;;;5018257;28;20931;-68
2022/12/26 11:47:06;;;;;;;6.10;1.30;;;;;;;;;;5004435;28;20578;-68
2022/12/26 11:49:40;;;;;;;13.83;1.60;;;;;;;;;;5019570;28;20218;-68
2022/12/26 11:52:30;;;;;;;8.90;1.60;;;;;;;;;;5011195;28;20196;-68
2022/12/26 11:54:55;;;;;;;13.33;1.50;;;;;;;;;;5012413;28;20198;-68
2022/12/26 11:57:27;;;;;;;9.57;1.37;;;;;;;;;;4993911;28;20246;-68
2022/12/26 11:59:54;;;;;;;8.93;1.53;;;;;;;;;;5001342;28;20207;-68
2022/12/26 12:02:24;;;;;;;8.47;1.50;;;;;;;;;;5010588;28;20281;-68
2022/12/26 12:04:53;;;;;;;7.03;1.53;;;;;;;;;;5002294;28;20179;-68
2022/12/26 12:07:22;;;;;;;5.32;1.90;;;;;;;;;;5009551;28;20572;-68
2022/12/26 12:10:11;;;;;;;12.37;2.23;;;;;;;;;;5005352;28;20235;-67
2022/12/26 12:12:46;;;;;;;9.67;2.00;;;;;;;;;;5004583;28;20196;-68
2022/12/26 12:15:34;;;;;;;10.47;1.57;;;;;;;;;;5002462;28;20608;-67
2022/12/26 12:18:09;;;;;;;13.80;2.42;;;;;;;;;;5004954;28;20214;-67
2022/12/26 12:20:44;;;;;;;8.73;1.15;;;;;;;;;;5017596;28;20662;-68
2022/12/26 12:23:37;;;;;;;8.87;1.53;;;;;;;;;;5001121;28;20238;-68
2022/12/26 12:26:12;;;;;;;7.27;1.03;;;;;;;;;;5007123;28;20668;-68
2022/12/26 12:28:40;;;;;;;7.87;1.37;;;;;;;;;;5004450;28;20221;-68
2022/12/26 12:31:27;;;;;;;6.33;1.53;;;;;;;;;;5007380;28;20198;-68
2022/12/26 12:34:11;;;;;;;6.05;1.10;;;;;;;;;;5016611;28;20206;-68
2022/12/26 12:37:13;;;;;;;11.63;1.75;;;;;;;;;;5008734;28;20187;-68
2022/12/26 12:39:53;;;;;;;7.50;1.30;;;;;;;;;;4998552;28;20221;-68
2022/12/26 12:42:49;;;;;;;6.20;1.15;;;;;;;;;;5002593;28;20620;-67
2022/12/26 12:45:36;;;;;;;6.40;0.90;;;;;;;;;;5007657;28;20183;-68
2022/12/26 12:48:33;;;;;;;5.88;0.95;;;;;;;;;;5004863;28;20260;-67
2022/12/26 12:51:22;;;;;;;6.07;1.10;;;;;;;;;;5003743;28;20191;-67
2022/12/26 12:54:26;;;;;;;9.32;1.10;;;;;;;;;;5004233;28;20194;-67
2022/12/26 12:56:54;;;;;;;11.15;1.23;;;;;;;;;;4984453;28;20612;-67
2022/12/26 12:59:48;;;;;;;7.47;1.50;;;;;;;;;;4990558;28;20200;-68
2022/12/26 13:02:22;;;;;;;12.55;1.40;;;;;;;;;;5003976;28;20269;-67
2022/12/26 13:04:52;;;;;;;10.35;1.20;;;;;;;;;;5015586;28;20197;-67
2022/12/26 13:07:25;;;;;;;6.82;1.05;;;;;;;;;;5015111;28;20619;-68
2022/12/26 13:09:55;;;;;;;12.80;2.08;;;;;;;;;;5007078;28;20190;-67
2022/12/26 13:12:25;;;;;;;14.93;3.13;;;;;;;;;;5008919;28;20187;-67
2022/12/26 13:14:59;;;;;;;9.68;1.40;;;;;;;;;;5021188;28;20189;-68
2022/12/26 13:17:33;;;;;;;12.63;1.30;;;;;;;;;;5011202;28;20439;-67
2022/12/26 13:20:11;;;;;;;8.75;1.60;;;;;;;;;;5012573;28;20206;-67
2022/12/26 13:25:33;;;;;;;8.00;1.13;;;;;;;;;;5016675;28;20188;-67
2022/12/26 13:28:08;;;;;;;7.28;1.20;;;;;;;;;;5013421;28;20541;-68
2022/12/26 13:30:35;;;;;;;11.17;1.30;;;;;;;;;;5011463;28;20660;-67
2022/12/26 13:33:02;;;;;;;8.63;1.40;;;;;;;;;;5013636;28;20180;-67
2022/12/26 13:35:54;;;;;;;8.07;1.25;;;;;;;;;;5005500;28;20452;-69
2022/12/26 13:38:21;;;;;;;7.95;1.10;;;;;;;;;;5015684;28;20204;-67
2022/12/26 13:43:53;;;;;;;6.82;1.02;;;;;;;;;;5015508;28;20194;-69
2022/12/26 13:43:59;;;;;;;5.38;1.02;;;;;;;;;;5011967;28;20203;-68
2022/12/26 13:46:36;;;;;;;9.80;1.65;;;;;;;;;;4986922;28;20183;-67
2022/12/26 13:49:02;;;;;;;9.48;1.35;;;;;;;;;;5017120;28;20209;-68
2022/12/26 13:51:44;;;;;;;8.50;0.97;;;;;;;;;;5020003;28;20193;-67
2022/12/26 13:54:12;;;;;;;9.13;1.23;;;;;;;;;;5021373;28;20186;-68
2022/12/26 13:56:44;;;;;;;7.38;1.33;;;;;;;;;;5018121;28;20368;-67
2022/12/26 13:59:19;;;;;;;8.77;1.37;;;;;;;;;;5018574;28;20244;-68
2022/12/26 14:01:50;;;;;;;9.90;1.53;;;;;;;;;;5020941;28;20191;-67
2022/12/26 14:04:44;;;;;;;9.47;1.20;;;;;;;;;;5016502;28;20182;-68
2022/12/26 14:07:29;;;;;;;5.23;0.90;;;;;;;;;;5013603;28;20666;-67
2022/12/26 14:10:17;;;;;;;15.53;2.67;;;;;;;;;;5021559;28;20244;-67
2022/12/26 14:12:58;;;;;;;7.53;1.23;;;;;;;;;;5020821;28;20349;-68
2022/12/26 14:15:46;;;;;;;5.23;1.13;;;;;;;;;;5014988;28;20210;-67
2022/12/26 14:18:31;;;;;;;10.30;1.47;;;;;;;;;;5018969;28;20273;-68
2022/12/26 14:21:29;;;;;;;9.37;1.57;;;;;;;;;;5031819;28;20218;-68
2022/12/26 14:24:21;;;;;;;13.67;2.83;;;;;;;;;;5018815;28;20231;-68
2022/12/26 14:27:29;;;;;;;15.23;5.60;;;;;;;;;;5016920;28;20767;-66
2022/12/26 14:30:21;;;;;;;8.30;1.93;;;;;;;;;;5005956;28;20214;-67
2022/12/26 14:33:19;;;;;;;10.10;2.40;;;;;;;;;;5004214;28;20254;-68
2022/12/26 14:36:14;;;;;;;12.50;2.87;;;;;;;;;;5009290;28;20193;-68
2022/12/26 14:38:59;;;;;;;12.83;3.33;;;;;;;;;;5010611;28;20198;-68
2022/12/26 14:44:29;;;;;;;11.82;1.45;;;;;;;;;;5009680;28;20292;-67
2022/12/26 14:46:58;;;;;;;10.13;1.65;;;;;;;;;;4992448;28;20214;-68
2022/12/26 14:49:44;;;;;;;11.45;2.03;;;;;;;;;;5016366;28;20521;-67
2022/12/26 14:52:22;;;;;;;11.07;2.10;;;;;;;;;;4999503;28;20207;-68
2022/12/26 14:54:47;;;;;;;12.83;2.03;;;;;;;;;;5019253;28;20186;-68
2022/12/26 14:57:34;;;;;;;15.93;2.17;;;;;;;;;;5013419;28;20199;-68
2022/12/26 15:00:22;;;;;;;10.33;1.47;;;;;;;;;;5014794;28;20221;-68
2022/12/26 15:02:56;;;;;;;10.93;2.20;;;;;;;;;;4998780;28;20223;-67
2022/12/26 15:05:26;;;;;;;11.80;2.27;;;;;;;;;;5016215;28;20202;-67
2022/12/26 15:08:19;;;;;;;10.60;1.80;;;;;;;;;;5014315;28;20221;-67
2022/12/26 15:11:24;;;;;;;11.73;1.60;;;;;;;;;;5000913;28;20187;-68
2022/12/26 15:14:14;;;;;;;12.97;1.70;;;;;;;;;;5006456;28;20329;-68
2022/12/26 15:17:09;;;;;;;11.00;1.93;;;;;;;;;;5013795;28;20237;-68
2022/12/26 15:20:09;;;;;;;9.00;1.63;;;;;;;;;;4990109;28;20271;-67
2022/12/26 15:22:53;;;;;;;10.33;2.30;;;;;;;;;;4994651;28;20760;-68
2022/12/26 15:25:43;;;;;;;14.27;2.00;;;;;;;;;;5016695;28;20198;-68
2022/12/26 15:28:34;;;;;;;9.17;1.70;;;;;;;;;;5016387;28;20199;-68
2022/12/26 15:31:12;;;;;;;11.20;1.93;;;;;;;;;;5010209;28;20190;-68
2022/12/26 15:33:45;;;;;;;9.30;2.07;;;;;;;;;;5012256;28;20757;-68
2022/12/26 15:36:22;;;;;;;8.87;2.27;;;;;;;;;;5011684;28;20207;-67
2022/12/26 15:39:03;;;;;;;16.53;4.17;;;;;;;;;;5002255;28;20245;-67
2022/12/26 15:41:45;;;;;;;18.83;5.77;;;;;;;;;;5002747;28;20221;-67
2022/12/26 15:44:38;;;;;;;19.33;5.83;;;;;;;;;;5005235;28;20217;-67
2022/12/26 15:47:15;;;;;;;14.20;3.13;;;;;;;;;;5005826;28;20199;-67
2022/12/26 15:49:57;;;;;;;12.93;2.73;;;;;;;;;;4996215;28;20207;-67
2022/12/26 15:52:47;;;;;;;17.13;2.70;;;;;;;;;;5011083;28;20243;-67
2022/12/26 15:55:32;;;;;;;10.90;3.00;;;;;;;;;;5013310;28;20194;-67
2022/12/26 15:58:01;;;;;;;14.63;5.00;;;;;;;;;;5015532;28;20190;-67
2022/12/26 16:00:46;;;;;;;14.60;5.00;;;;;;;;;;5010748;28;20337;-67
2022/12/26 16:03:28;;;;;;;22.33;4.90;;;;;;;;;;5010169;28;20206;-67
2022/12/26 16:05:58;;;;;;;18.43;4.10;;;;;;;;;;5002928;28;20201;-68
2022/12/26 16:08:54;;;;;;;11.80;4.07;;;;;;;;;;5004548;28;20626;-67
2022/12/26 16:11:22;;;;;;;14.17;4.23;;;;;;;;;;4998260;28;20539;-67
2022/12/26 16:14:12;;;;;;;13.80;3.83;;;;;;;;;;5002168;28;20190;-67
2022/12/26 16:16:38;;;;;;;15.43;5.70;;;;;;;;;;5006916;28;20190;-68
2022/12/26 16:19:19;;;;;;;17.37;5.77;;;;;;;;;;5010046;28;20197;-67
2022/12/26 16:24:38;;;;;;;25.87;8.83;;;;;;;;;;5005725;28;20207;-68
2022/12/26 16:27:06;;;;;;;20.83;6.37;;;;;;;;;;5019404;28;20190;-67
2022/12/26 16:29:35;;;;;;;21.70;8.37;;;;;;;;;;5011511;28;20268;-67
2022/12/26 16:32:05;;;;;;;21.70;8.30;;;;;;;;;;5007887;28;20535;-67
2022/12/26 16:34:35;;;;;;;17.67;7.50;;;;;;;;;;5009076;28;20745;-67
2022/12/26 16:37:02;;;;;;;20.60;6.67;;;;;;;;;;4997179;28;20664;-68
2022/12/26 16:39:27;;;;;;;19.27;5.60;;;;;;;;;;5002852;28;20528;-67
2022/12/26 16:42:02;;;;;;;18.17;5.20;;;;;;;;;;5004162;28;20226;-68
2022/12/26 16:44:33;;;;;;;13.60;4.40;;;;;;;;;;5018344;28;20721;-67
2022/12/26 16:47:00;;;;;;;8.77;3.13;;;;;;;;;;5008346;28;20191;-67
2022/12/26 16:49:27;;;;;;;22.13;3.07;;;;;;;;;;5011737;28;20207;-67
2022/12/26 16:51:53;;;;;;;12.27;2.33;;;;;;;;;;5004433;28;20191;-67
2022/12/26 16:54:19;;;;;;;12.73;2.80;;;;;;;;;;5011565;28;20210;-67
2022/12/26 16:57:07;;;;;;;11.93;2.37;;;;;;;;;;5009323;28;20208;-67
2022/12/26 16:59:49;;;;;;;9.33;2.20;;;;;;;;;;4996709;28;20215;-67
2022/12/26 17:02:20;;;;;;;8.27;2.60;;;;;;;;;;5008034;28;20201;-68
2022/12/26 17:04:53;;;;;;;9.90;2.77;;;;;;;;;;5008804;28;20201;-67
2022/12/26 17:07:21;;;;;;;17.10;3.27;;;;;;;;;;5003188;28;20255;-68
2022/12/26 17:09:52;;;;;;;14.67;3.40;;;;;;;;;;5007565;28;20226;-67
2022/12/26 17:12:29;;;;;;;13.33;3.60;;;;;;;;;;5015046;28;20201;-67
2022/12/26 17:14:57;;;;;;;15.73;3.30;;;;;;;;;;5000709;28;20693;-67
2022/12/26 17:17:22;;;;;;;16.07;3.37;;;;;;;;;;5013379;28;20650;-67